sensor_id;sensor_type;location;lat;lon;timestamp;P1;durP1;ratioP1;P2;durP2;ratioP2
20480;SDS011;10399;50.754;3.366;2023-08-06T00:01:33;17.05;;;6.78;;
20480;SDS011;10399;50.754;3.366;2023-08-06T00:04:00;12.82;;;6.07;;
20480;SDS011;10399;50.754;3.366;2023-08-06T00:06:28;11.10;;;4.85;;
20480;SDS011;10399;50.754;3.366;2023-08-06T00:08:55;10.73;;;3.50;;
20480;SDS011;10399;50.754;3.366;2023-08-06T00:11:22;9.93;;;3.85;;
20480;SDS011;10399;50.754;3.366;2023-08-06T00:13:50;10.93;;;3.42;;
20480;SDS011;10399;50.754;3.366;2023-08-06T00:16:17;10.38;;;2.80;;
20480;SDS011;10399;50.754;3.366;2023-08-06T00:18:44;5.43;;;2.38;;
20480;SDS011;10399;50.754;3.366;2023-08-06T00:21:11;6.30;;;1.90;;
20480;SDS011;10399;50.754;3.366;2023-08-06T00:23:39;8.60;;;2.22;;
20480;SDS011;10399;50.754;3.366;2023-08-06T00:26:07;4.05;;;1.25;;
20480;SDS011;10399;50.754;3.366;2023-08-06T00:28:34;8.63;;;2.35;;
20480;SDS011;10399;50.754;3.366;2023-08-06T00:31:02;6.25;;;1.85;;
20480;SDS011;10399;50.754;3.366;2023-08-06T00:33:29;6.38;;;1.63;;
20480;SDS011;10399;50.754;3.366;2023-08-06T00:35:57;11.27;;;1.67;;
20480;SDS011;10399;50.754;3.366;2023-08-06T00:38:24;8.60;;;1.85;;
20480;SDS011;10399;50.754;3.366;2023-08-06T00:40:51;9.02;;;1.80;;
20480;SDS011;10399;50.754;3.366;2023-08-06T00:43:19;3.35;;;1.40;;
20480;SDS011;10399;50.754;3.366;2023-08-06T00:45:46;4.97;;;1.40;;
20480;SDS011;10399;50.754;3.366;2023-08-06T00:48:14;7.05;;;1.65;;
20480;SDS011;10399;50.754;3.366;2023-08-06T00:50:41;8.55;;;1.05;;
20480;SDS011;10399;50.754;3.366;2023-08-06T00:53:08;6.00;;;1.25;;
20480;SDS011;10399;50.754;3.366;2023-08-06T00:55:36;10.82;;;1.52;;
20480;SDS011;10399;50.754;3.366;2023-08-06T00:58:04;6.13;;;1.33;;
20480;SDS011;10399;50.754;3.366;2023-08-06T01:00:32;7.60;;;1.15;;
20480;SDS011;10399;50.754;3.366;2023-08-06T01:02:59;9.35;;;1.45;;
20480;SDS011;10399;50.754;3.366;2023-08-06T01:05:27;5.90;;;1.15;;
20480;SDS011;10399;50.754;3.366;2023-08-06T01:13:50;18.77;;;1.48;;
20480;SDS011;10399;50.754;3.366;2023-08-06T01:16:24;8.57;;;1.52;;
20480;SDS011;10399;50.754;3.366;2023-08-06T01:18:52;17.08;;;1.92;;
20480;SDS011;10399;50.754;3.366;2023-08-06T01:21:20;10.50;;;1.63;;
20480;SDS011;10399;50.754;3.366;2023-08-06T01:23:47;7.97;;;1.80;;
20480;SDS011;10399;50.754;3.366;2023-08-06T01:28:59;6.90;;;1.50;;
20480;SDS011;10399;50.754;3.366;2023-08-06T01:31:38;10.68;;;1.70;;
20480;SDS011;10399;50.754;3.366;2023-08-06T01:34:09;5.63;;;1.40;;
20480;SDS011;10399;50.754;3.366;2023-08-06T01:36:44;12.20;;;1.75;;
20480;SDS011;10399;50.754;3.366;2023-08-06T01:39:12;9.25;;;1.77;;
20480;SDS011;10399;50.754;3.366;2023-08-06T01:41:39;8.38;;;2.10;;
20480;SDS011;10399;50.754;3.366;2023-08-06T01:44:06;20.17;;;3.13;;
20480;SDS011;10399;50.754;3.366;2023-08-06T01:46:33;7.38;;;2.75;;
20480;SDS011;10399;50.754;3.366;2023-08-06T01:49:01;12.05;;;2.60;;
20480;SDS011;10399;50.754;3.366;2023-08-06T01:51:28;8.73;;;2.85;;
20480;SDS011;10399;50.754;3.366;2023-08-06T01:53:56;12.57;;;3.63;;
20480;SDS011;10399;50.754;3.366;2023-08-06T01:56:23;10.75;;;3.50;;
20480;SDS011;10399;50.754;3.366;2023-08-06T01:58:50;12.27;;;4.30;;
20480;SDS011;10399;50.754;3.366;2023-08-06T02:01:18;11.55;;;4.25;;
20480;SDS011;10399;50.754;3.366;2023-08-06T02:03:45;7.53;;;3.35;;
20480;SDS011;10399;50.754;3.366;2023-08-06T02:06:12;6.90;;;3.33;;
20480;SDS011;10399;50.754;3.366;2023-08-06T02:08:39;9.70;;;3.60;;
20480;SDS011;10399;50.754;3.366;2023-08-06T02:11:06;14.13;;;3.90;;
20480;SDS011;10399;50.754;3.366;2023-08-06T02:13:33;8.50;;;3.45;;
20480;SDS011;10399;50.754;3.366;2023-08-06T02:16:00;9.15;;;3.00;;
20480;SDS011;10399;50.754;3.366;2023-08-06T02:18:27;9.57;;;3.30;;
20480;SDS011;10399;50.754;3.366;2023-08-06T02:20:56;18.00;;;3.67;;
20480;SDS011;10399;50.754;3.366;2023-08-06T02:23:24;8.60;;;2.72;;
20480;SDS011;10399;50.754;3.366;2023-08-06T02:26:02;6.70;;;2.83;;
20480;SDS011;10399;50.754;3.366;2023-08-06T02:28:30;13.90;;;3.60;;
20480;SDS011;10399;50.754;3.366;2023-08-06T02:30:59;6.45;;;3.05;;
20480;SDS011;10399;50.754;3.366;2023-08-06T02:33:27;5.32;;;3.00;;
20480;SDS011;10399;50.754;3.366;2023-08-06T02:36:01;9.05;;;2.97;;
20480;SDS011;10399;50.754;3.366;2023-08-06T02:38:33;7.28;;;3.28;;
20480;SDS011;10399;50.754;3.366;2023-08-06T02:41:03;9.02;;;2.97;;
20480;SDS011;10399;50.754;3.366;2023-08-06T02:43:31;11.60;;;3.83;;
20480;SDS011;10399;50.754;3.366;2023-08-06T02:45:58;7.90;;;2.53;;
20480;SDS011;10399;50.754;3.366;2023-08-06T02:48:27;8.05;;;2.95;;
20480;SDS011;10399;50.754;3.366;2023-08-06T02:50:58;6.95;;;2.85;;
20480;SDS011;10399;50.754;3.366;2023-08-06T02:53:26;11.15;;;3.28;;
20480;SDS011;10399;50.754;3.366;2023-08-06T02:55:53;10.23;;;3.35;;
20480;SDS011;10399;50.754;3.366;2023-08-06T02:58:22;11.13;;;4.25;;
20480;SDS011;10399;50.754;3.366;2023-08-06T03:00:58;14.30;;;4.28;;
20480;SDS011;10399;50.754;3.366;2023-08-06T03:03:30;15.32;;;3.75;;
20480;SDS011;10399;50.754;3.366;2023-08-06T03:05:58;10.27;;;3.78;;
20480;SDS011;10399;50.754;3.366;2023-08-06T03:08:26;16.90;;;3.80;;
20480;SDS011;10399;50.754;3.366;2023-08-06T03:10:54;13.38;;;3.78;;
20480;SDS011;10399;50.754;3.366;2023-08-06T03:13:21;17.48;;;3.95;;
20480;SDS011;10399;50.754;3.366;2023-08-06T03:16:06;13.05;;;3.83;;
20480;SDS011;10399;50.754;3.366;2023-08-06T03:18:34;11.93;;;3.80;;
20480;SDS011;10399;50.754;3.366;2023-08-06T03:21:01;12.65;;;3.20;;
20480;SDS011;10399;50.754;3.366;2023-08-06T03:23:29;17.98;;;3.80;;
20480;SDS011;10399;50.754;3.366;2023-08-06T03:25:56;13.73;;;3.95;;
20480;SDS011;10399;50.754;3.366;2023-08-06T03:28:27;14.43;;;3.88;;
20480;SDS011;10399;50.754;3.366;2023-08-06T03:31:03;13.10;;;3.22;;
20480;SDS011;10399;50.754;3.366;2023-08-06T03:33:31;14.20;;;3.70;;
20480;SDS011;10399;50.754;3.366;2023-08-06T03:35:59;18.50;;;3.88;;
20480;SDS011;10399;50.754;3.366;2023-08-06T03:38:26;14.10;;;3.75;;
20480;SDS011;10399;50.754;3.366;2023-08-06T03:40:55;17.55;;;4.10;;
20480;SDS011;10399;50.754;3.366;2023-08-06T03:43:23;12.57;;;3.90;;
20480;SDS011;10399;50.754;3.366;2023-08-06T03:45:51;19.65;;;4.20;;
20480;SDS011;10399;50.754;3.366;2023-08-06T03:48:19;17.13;;;3.88;;
20480;SDS011;10399;50.754;3.366;2023-08-06T03:50:46;16.13;;;4.30;;
20480;SDS011;10399;50.754;3.366;2023-08-06T03:53:14;15.00;;;5.03;;
20480;SDS011;10399;50.754;3.366;2023-08-06T03:55:41;17.08;;;4.53;;
20480;SDS011;10399;50.754;3.366;2023-08-06T03:58:08;16.00;;;4.65;;
20480;SDS011;10399;50.754;3.366;2023-08-06T04:00:36;15.10;;;4.82;;
20480;SDS011;10399;50.754;3.366;2023-08-06T04:03:03;21.25;;;4.47;;
20480;SDS011;10399;50.754;3.366;2023-08-06T04:05:31;18.60;;;4.60;;
20480;SDS011;10399;50.754;3.366;2023-08-06T04:07:59;14.98;;;4.97;;
20480;SDS011;10399;50.754;3.366;2023-08-06T04:10:26;18.05;;;4.45;;
20480;SDS011;10399;50.754;3.366;2023-08-06T04:12:54;18.15;;;4.55;;
20480;SDS011;10399;50.754;3.366;2023-08-06T04:15:22;13.68;;;4.70;;
20480;SDS011;10399;50.754;3.366;2023-08-06T04:17:49;20.23;;;5.07;;
20480;SDS011;10399;50.754;3.366;2023-08-06T04:20:16;15.85;;;5.20;;
20480;SDS011;10399;50.754;3.366;2023-08-06T04:22:43;13.82;;;5.03;;
20480;SDS011;10399;50.754;3.366;2023-08-06T04:25:10;12.55;;;4.47;;
20480;SDS011;10399;50.754;3.366;2023-08-06T04:27:37;17.05;;;4.55;;
20480;SDS011;10399;50.754;3.366;2023-08-06T04:30:08;15.00;;;4.60;;
20480;SDS011;10399;50.754;3.366;2023-08-06T04:32:37;11.85;;;4.18;;
20480;SDS011;10399;50.754;3.366;2023-08-06T04:35:05;17.15;;;4.85;;
20480;SDS011;10399;50.754;3.366;2023-08-06T04:37:33;12.55;;;4.70;;
20480;SDS011;10399;50.754;3.366;2023-08-06T04:40:00;18.15;;;5.10;;
20480;SDS011;10399;50.754;3.366;2023-08-06T04:42:28;16.00;;;4.65;;
20480;SDS011;10399;50.754;3.366;2023-08-06T04:44:55;11.15;;;4.50;;
20480;SDS011;10399;50.754;3.366;2023-08-06T04:47:22;15.05;;;4.22;;
20480;SDS011;10399;50.754;3.366;2023-08-06T04:49:50;10.50;;;4.13;;
20480;SDS011;10399;50.754;3.366;2023-08-06T04:52:18;12.75;;;4.20;;
20480;SDS011;10399;50.754;3.366;2023-08-06T04:54:45;13.63;;;4.25;;
20480;SDS011;10399;50.754;3.366;2023-08-06T04:57:13;12.52;;;4.13;;
20480;SDS011;10399;50.754;3.366;2023-08-06T04:59:40;13.57;;;4.05;;
20480;SDS011;10399;50.754;3.366;2023-08-06T05:02:07;14.43;;;4.55;;
20480;SDS011;10399;50.754;3.366;2023-08-06T05:04:35;15.43;;;4.38;;
20480;SDS011;10399;50.754;3.366;2023-08-06T05:07:03;15.23;;;4.07;;
20480;SDS011;10399;50.754;3.366;2023-08-06T05:09:32;14.93;;;4.32;;
20480;SDS011;10399;50.754;3.366;2023-08-06T05:12:03;9.88;;;3.85;;
20480;SDS011;10399;50.754;3.366;2023-08-06T05:14:31;7.80;;;3.63;;
20480;SDS011;10399;50.754;3.366;2023-08-06T05:16:58;8.10;;;3.50;;
20480;SDS011;10399;50.754;3.366;2023-08-06T05:19:25;11.80;;;3.70;;
20480;SDS011;10399;50.754;3.366;2023-08-06T05:21:53;11.20;;;3.72;;
20480;SDS011;10399;50.754;3.366;2023-08-06T05:24:20;10.85;;;3.53;;
20480;SDS011;10399;50.754;3.366;2023-08-06T05:26:48;14.35;;;4.32;;
20480;SDS011;10399;50.754;3.366;2023-08-06T05:29:16;8.93;;;3.22;;
20480;SDS011;10399;50.754;3.366;2023-08-06T05:31:43;13.35;;;3.20;;
20480;SDS011;10399;50.754;3.366;2023-08-06T05:34:10;10.70;;;3.25;;
20480;SDS011;10399;50.754;3.366;2023-08-06T05:36:37;11.38;;;2.85;;
20480;SDS011;10399;50.754;3.366;2023-08-06T05:39:04;10.90;;;3.05;;
20480;SDS011;10399;50.754;3.366;2023-08-06T05:41:31;14.05;;;2.42;;
20480;SDS011;10399;50.754;3.366;2023-08-06T05:43:59;8.30;;;2.67;;
20480;SDS011;10399;50.754;3.366;2023-08-06T05:46:29;10.40;;;2.47;;
20480;SDS011;10399;50.754;3.366;2023-08-06T05:48:56;10.85;;;2.13;;
20480;SDS011;10399;50.754;3.366;2023-08-06T05:51:25;12.07;;;2.30;;
20480;SDS011;10399;50.754;3.366;2023-08-06T05:53:53;9.38;;;2.08;;
20480;SDS011;10399;50.754;3.366;2023-08-06T05:56:21;4.25;;;1.65;;
20480;SDS011;10399;50.754;3.366;2023-08-06T05:58:48;10.82;;;2.00;;
20480;SDS011;10399;50.754;3.366;2023-08-06T06:01:17;9.68;;;1.90;;
20480;SDS011;10399;50.754;3.366;2023-08-06T06:03:46;9.43;;;1.80;;
20480;SDS011;10399;50.754;3.366;2023-08-06T06:06:13;6.40;;;1.70;;
20480;SDS011;10399;50.754;3.366;2023-08-06T06:08:42;6.10;;;1.70;;
20480;SDS011;10399;50.754;3.366;2023-08-06T06:11:10;7.18;;;1.98;;
20480;SDS011;10399;50.754;3.366;2023-08-06T06:13:37;16.38;;;1.80;;
20480;SDS011;10399;50.754;3.366;2023-08-06T06:16:05;8.65;;;2.30;;
20480;SDS011;10399;50.754;3.366;2023-08-06T06:18:32;9.65;;;2.30;;
20480;SDS011;10399;50.754;3.366;2023-08-06T06:20:59;11.70;;;2.35;;
20480;SDS011;10399;50.754;3.366;2023-08-06T06:23:27;12.02;;;3.13;;
20480;SDS011;10399;50.754;3.366;2023-08-06T06:25:54;11.20;;;2.67;;
20480;SDS011;10399;50.754;3.366;2023-08-06T06:28:22;8.52;;;2.85;;
20480;SDS011;10399;50.754;3.366;2023-08-06T06:30:51;14.80;;;2.92;;
20480;SDS011;10399;50.754;3.366;2023-08-06T06:33:18;13.43;;;3.00;;
20480;SDS011;10399;50.754;3.366;2023-08-06T06:35:45;13.15;;;2.72;;
20480;SDS011;10399;50.754;3.366;2023-08-06T06:38:13;10.63;;;2.60;;
20480;SDS011;10399;50.754;3.366;2023-08-06T06:40:41;13.55;;;3.13;;
20480;SDS011;10399;50.754;3.366;2023-08-06T06:43:08;15.60;;;3.03;;
20480;SDS011;10399;50.754;3.366;2023-08-06T06:45:35;11.38;;;2.97;;
20480;SDS011;10399;50.754;3.366;2023-08-06T06:48:02;12.35;;;2.90;;
20480;SDS011;10399;50.754;3.366;2023-08-06T06:50:30;10.98;;;3.00;;
20480;SDS011;10399;50.754;3.366;2023-08-06T06:52:58;13.50;;;2.85;;
20480;SDS011;10399;50.754;3.366;2023-08-06T06:55:25;8.00;;;2.55;;
20480;SDS011;10399;50.754;3.366;2023-08-06T06:57:54;12.65;;;3.15;;
20480;SDS011;10399;50.754;3.366;2023-08-06T07:00:21;9.50;;;2.72;;
20480;SDS011;10399;50.754;3.366;2023-08-06T07:02:48;9.05;;;2.53;;
20480;SDS011;10399;50.754;3.366;2023-08-06T07:05:15;12.45;;;2.70;;
20480;SDS011;10399;50.754;3.366;2023-08-06T07:07:43;14.80;;;2.70;;
20480;SDS011;10399;50.754;3.366;2023-08-06T07:10:11;11.65;;;2.80;;
20480;SDS011;10399;50.754;3.366;2023-08-06T07:12:39;9.88;;;2.25;;
20480;SDS011;10399;50.754;3.366;2023-08-06T07:15:06;12.88;;;2.33;;
20480;SDS011;10399;50.754;3.366;2023-08-06T07:17:33;8.48;;;2.58;;
20480;SDS011;10399;50.754;3.366;2023-08-06T07:20:01;9.68;;;2.65;;
20480;SDS011;10399;50.754;3.366;2023-08-06T07:22:29;8.02;;;2.38;;
20480;SDS011;10399;50.754;3.366;2023-08-06T07:24:57;6.25;;;2.58;;
20480;SDS011;10399;50.754;3.366;2023-08-06T07:27:24;9.68;;;2.47;;
20480;SDS011;10399;50.754;3.366;2023-08-06T07:29:52;7.00;;;2.35;;
20480;SDS011;10399;50.754;3.366;2023-08-06T07:32:19;11.15;;;2.28;;
20480;SDS011;10399;50.754;3.366;2023-08-06T07:34:49;5.90;;;1.80;;
20480;SDS011;10399;50.754;3.366;2023-08-06T07:37:16;7.43;;;1.85;;
20480;SDS011;10399;50.754;3.366;2023-08-06T07:39:44;7.63;;;2.40;;
20480;SDS011;10399;50.754;3.366;2023-08-06T07:42:11;7.03;;;2.20;;
20480;SDS011;10399;50.754;3.366;2023-08-06T07:44:38;7.15;;;2.22;;
20480;SDS011;10399;50.754;3.366;2023-08-06T07:47:06;12.40;;;2.15;;
20480;SDS011;10399;50.754;3.366;2023-08-06T07:49:34;6.80;;;1.65;;
20480;SDS011;10399;50.754;3.366;2023-08-06T07:52:02;8.98;;;2.42;;
20480;SDS011;10399;50.754;3.366;2023-08-06T07:54:31;9.93;;;2.38;;
20480;SDS011;10399;50.754;3.366;2023-08-06T07:56:58;9.77;;;2.60;;
20480;SDS011;10399;50.754;3.366;2023-08-06T07:59:25;8.93;;;2.10;;
20480;SDS011;10399;50.754;3.366;2023-08-06T08:01:52;8.45;;;1.70;;
20480;SDS011;10399;50.754;3.366;2023-08-06T08:04:21;17.15;;;2.53;;
20480;SDS011;10399;50.754;3.366;2023-08-06T08:06:50;9.70;;;2.00;;
20480;SDS011;10399;50.754;3.366;2023-08-06T08:09:17;11.45;;;2.38;;
20480;SDS011;10399;50.754;3.366;2023-08-06T08:11:45;8.98;;;1.75;;
20480;SDS011;10399;50.754;3.366;2023-08-06T08:14:14;10.25;;;2.03;;
20480;SDS011;10399;50.754;3.366;2023-08-06T08:16:41;8.10;;;1.60;;
20480;SDS011;10399;50.754;3.366;2023-08-06T08:19:09;7.20;;;1.92;;
20480;SDS011;10399;50.754;3.366;2023-08-06T08:21:36;9.10;;;2.22;;
20480;SDS011;10399;50.754;3.366;2023-08-06T08:24:03;6.47;;;1.92;;
20480;SDS011;10399;50.754;3.366;2023-08-06T08:26:31;11.15;;;1.65;;
20480;SDS011;10399;50.754;3.366;2023-08-06T08:28:59;7.93;;;2.20;;
20480;SDS011;10399;50.754;3.366;2023-08-06T08:31:26;7.80;;;1.75;;
20480;SDS011;10399;50.754;3.366;2023-08-06T08:33:55;9.75;;;2.10;;
20480;SDS011;10399;50.754;3.366;2023-08-06T08:36:25;12.73;;;2.13;;
20480;SDS011;10399;50.754;3.366;2023-08-06T08:38:52;5.90;;;1.70;;
20480;SDS011;10399;50.754;3.366;2023-08-06T08:41:20;5.90;;;1.88;;
20480;SDS011;10399;50.754;3.366;2023-08-06T08:43:48;8.23;;;1.98;;
20480;SDS011;10399;50.754;3.366;2023-08-06T08:46:20;11.77;;;2.00;;
20480;SDS011;10399;50.754;3.366;2023-08-06T08:48:49;5.90;;;1.48;;
20480;SDS011;10399;50.754;3.366;2023-08-06T08:51:16;11.23;;;1.58;;
20480;SDS011;10399;50.754;3.366;2023-08-06T08:53:44;5.82;;;1.90;;
20480;SDS011;10399;50.754;3.366;2023-08-06T08:56:13;7.60;;;2.20;;
20480;SDS011;10399;50.754;3.366;2023-08-06T08:58:41;13.93;;;1.95;;
20480;SDS011;10399;50.754;3.366;2023-08-06T09:01:09;7.75;;;2.30;;
20480;SDS011;10399;50.754;3.366;2023-08-06T09:03:36;11.30;;;2.47;;
20480;SDS011;10399;50.754;3.366;2023-08-06T09:06:05;5.68;;;2.10;;
20480;SDS011;10399;50.754;3.366;2023-08-06T09:08:41;11.15;;;2.22;;
20480;SDS011;10399;50.754;3.366;2023-08-06T09:11:12;10.55;;;2.17;;
20480;SDS011;10399;50.754;3.366;2023-08-06T09:13:40;8.70;;;1.88;;
20480;SDS011;10399;50.754;3.366;2023-08-06T09:16:08;10.18;;;2.30;;
20480;SDS011;10399;50.754;3.366;2023-08-06T09:18:37;8.50;;;2.50;;
20480;SDS011;10399;50.754;3.366;2023-08-06T09:21:05;8.40;;;2.40;;
20480;SDS011;10399;50.754;3.366;2023-08-06T09:23:39;7.50;;;2.17;;
20480;SDS011;10399;50.754;3.366;2023-08-06T09:26:08;6.63;;;2.22;;
20480;SDS011;10399;50.754;3.366;2023-08-06T09:28:42;11.63;;;2.55;;
20480;SDS011;10399;50.754;3.366;2023-08-06T09:31:10;9.90;;;2.30;;
20480;SDS011;10399;50.754;3.366;2023-08-06T09:33:37;9.55;;;2.30;;
20480;SDS011;10399;50.754;3.366;2023-08-06T09:36:11;14.18;;;3.17;;
20480;SDS011;10399;50.754;3.366;2023-08-06T09:38:39;9.43;;;2.70;;
20480;SDS011;10399;50.754;3.366;2023-08-06T09:41:08;9.70;;;2.47;;
20480;SDS011;10399;50.754;3.366;2023-08-06T09:43:42;8.15;;;2.70;;
20480;SDS011;10399;50.754;3.366;2023-08-06T09:46:13;7.57;;;2.28;;
20480;SDS011;10399;50.754;3.366;2023-08-06T09:48:46;7.60;;;2.80;;
20480;SDS011;10399;50.754;3.366;2023-08-06T09:51:14;12.52;;;2.85;;
20480;SDS011;10399;50.754;3.366;2023-08-06T09:53:42;7.25;;;2.10;;
20480;SDS011;10399;50.754;3.366;2023-08-06T09:56:11;13.70;;;2.63;;
20480;SDS011;10399;50.754;3.366;2023-08-06T09:58:41;7.07;;;2.25;;
20480;SDS011;10399;50.754;3.366;2023-08-06T10:01:09;10.00;;;2.20;;
20480;SDS011;10399;50.754;3.366;2023-08-06T10:03:37;10.27;;;2.65;;
20480;SDS011;10399;50.754;3.366;2023-08-06T10:06:06;8.60;;;2.05;;
20480;SDS011;10399;50.754;3.366;2023-08-06T10:08:35;9.50;;;1.98;;
20480;SDS011;10399;50.754;3.366;2023-08-06T10:11:02;7.82;;;2.13;;
20480;SDS011;10399;50.754;3.366;2023-08-06T10:13:32;11.52;;;2.40;;
20480;SDS011;10399;50.754;3.366;2023-08-06T10:16:01;10.65;;;2.53;;
20480;SDS011;10399;50.754;3.366;2023-08-06T10:18:33;8.95;;;2.35;;
20480;SDS011;10399;50.754;3.366;2023-08-06T10:21:08;11.40;;;2.50;;
20480;SDS011;10399;50.754;3.366;2023-08-06T10:23:36;11.30;;;2.40;;
20480;SDS011;10399;50.754;3.366;2023-08-06T10:26:07;7.43;;;1.90;;
20480;SDS011;10399;50.754;3.366;2023-08-06T10:28:39;10.60;;;2.40;;
20480;SDS011;10399;50.754;3.366;2023-08-06T10:31:06;11.27;;;2.30;;
20480;SDS011;10399;50.754;3.366;2023-08-06T10:33:43;6.65;;;2.45;;
20480;SDS011;10399;50.754;3.366;2023-08-06T10:36:12;9.60;;;2.35;;
20480;SDS011;10399;50.754;3.366;2023-08-06T10:38:49;6.55;;;2.50;;
20480;SDS011;10399;50.754;3.366;2023-08-06T10:41:22;7.38;;;1.90;;
20480;SDS011;10399;50.754;3.366;2023-08-06T10:44:05;8.52;;;2.60;;
20480;SDS011;10399;50.754;3.366;2023-08-06T10:46:34;10.35;;;2.38;;
20480;SDS011;10399;50.754;3.366;2023-08-06T10:49:03;8.52;;;2.33;;
20480;SDS011;10399;50.754;3.366;2023-08-06T10:51:30;7.75;;;3.03;;
20480;SDS011;10399;50.754;3.366;2023-08-06T10:53:59;10.23;;;2.58;;
20480;SDS011;10399;50.754;3.366;2023-08-06T10:56:26;4.88;;;2.10;;
20480;SDS011;10399;50.754;3.366;2023-08-06T10:58:55;4.60;;;2.08;;
20480;SDS011;10399;50.754;3.366;2023-08-06T11:01:26;5.95;;;1.90;;
20480;SDS011;10399;50.754;3.366;2023-08-06T11:04:00;7.28;;;2.15;;
20480;SDS011;10399;50.754;3.366;2023-08-06T11:06:29;8.48;;;2.20;;
20480;SDS011;10399;50.754;3.366;2023-08-06T11:08:56;5.13;;;1.55;;
20480;SDS011;10399;50.754;3.366;2023-08-06T11:11:23;4.05;;;1.33;;
20480;SDS011;10399;50.754;3.366;2023-08-06T11:13:51;11.05;;;2.58;;
20480;SDS011;10399;50.754;3.366;2023-08-06T11:16:19;10.02;;;2.30;;
20480;SDS011;10399;50.754;3.366;2023-08-06T11:18:52;7.82;;;1.98;;
20480;SDS011;10399;50.754;3.366;2023-08-06T11:21:21;6.30;;;2.13;;
20480;SDS011;10399;50.754;3.366;2023-08-06T11:23:51;3.67;;;1.95;;
20480;SDS011;10399;50.754;3.366;2023-08-06T11:26:20;5.35;;;1.88;;
20480;SDS011;10399;50.754;3.366;2023-08-06T11:28:49;8.63;;;2.40;;
20480;SDS011;10399;50.754;3.366;2023-08-06T11:31:23;6.22;;;2.33;;
20480;SDS011;10399;50.754;3.366;2023-08-06T11:33:51;5.65;;;2.10;;
20480;SDS011;10399;50.754;3.366;2023-08-06T11:36:30;11.73;;;2.85;;
20480;SDS011;10399;50.754;3.366;2023-08-06T11:38:58;6.65;;;1.90;;
20480;SDS011;10399;50.754;3.366;2023-08-06T11:41:29;6.55;;;1.88;;
20480;SDS011;10399;50.754;3.366;2023-08-06T11:43:57;5.68;;;1.92;;
20480;SDS011;10399;50.754;3.366;2023-08-06T11:46:25;6.80;;;1.90;;
20480;SDS011;10399;50.754;3.366;2023-08-06T11:48:53;8.40;;;2.13;;
20480;SDS011;10399;50.754;3.366;2023-08-06T11:51:25;8.77;;;1.85;;
20480;SDS011;10399;50.754;3.366;2023-08-06T11:53:57;7.15;;;2.13;;
20480;SDS011;10399;50.754;3.366;2023-08-06T11:56:25;5.18;;;1.77;;
20480;SDS011;10399;50.754;3.366;2023-08-06T11:58:54;10.75;;;1.98;;
20480;SDS011;10399;50.754;3.366;2023-08-06T12:01:21;4.78;;;1.85;;
20480;SDS011;10399;50.754;3.366;2023-08-06T12:03:49;7.30;;;1.70;;
20480;SDS011;10399;50.754;3.366;2023-08-06T12:06:17;5.85;;;2.08;;
20480;SDS011;10399;50.754;3.366;2023-08-06T12:08:44;5.72;;;1.67;;
20480;SDS011;10399;50.754;3.366;2023-08-06T12:11:11;8.70;;;1.75;;
20480;SDS011;10399;50.754;3.366;2023-08-06T12:13:38;6.65;;;1.60;;
20480;SDS011;10399;50.754;3.366;2023-08-06T12:16:06;5.88;;;1.30;;
20480;SDS011;10399;50.754;3.366;2023-08-06T12:18:33;7.60;;;1.60;;
20480;SDS011;10399;50.754;3.366;2023-08-06T12:21:00;5.45;;;1.65;;
20480;SDS011;10399;50.754;3.366;2023-08-06T12:23:27;4.88;;;1.73;;
20480;SDS011;10399;50.754;3.366;2023-08-06T12:25:54;5.72;;;1.50;;
20480;SDS011;10399;50.754;3.366;2023-08-06T12:28:22;3.38;;;1.52;;
20480;SDS011;10399;50.754;3.366;2023-08-06T12:30:49;7.55;;;1.60;;
20480;SDS011;10399;50.754;3.366;2023-08-06T12:33:18;5.90;;;1.60;;
20480;SDS011;10399;50.754;3.366;2023-08-06T12:35:46;5.18;;;1.83;;
20480;SDS011;10399;50.754;3.366;2023-08-06T12:38:13;9.32;;;1.70;;
20480;SDS011;10399;50.754;3.366;2023-08-06T12:40:40;9.20;;;1.98;;
20480;SDS011;10399;50.754;3.366;2023-08-06T12:43:09;5.95;;;1.83;;
20480;SDS011;10399;50.754;3.366;2023-08-06T12:45:36;11.07;;;1.50;;
20480;SDS011;10399;50.754;3.366;2023-08-06T12:48:05;5.63;;;2.03;;
20480;SDS011;10399;50.754;3.366;2023-08-06T12:50:32;8.02;;;1.77;;
20480;SDS011;10399;50.754;3.366;2023-08-06T12:52:59;9.40;;;1.95;;
20480;SDS011;10399;50.754;3.366;2023-08-06T12:55:27;5.72;;;1.90;;
20480;SDS011;10399;50.754;3.366;2023-08-06T12:57:58;6.13;;;2.10;;
20480;SDS011;10399;50.754;3.366;2023-08-06T13:00:26;9.65;;;2.20;;
20480;SDS011;10399;50.754;3.366;2023-08-06T13:02:54;7.40;;;2.05;;
20480;SDS011;10399;50.754;3.366;2023-08-06T13:05:22;7.18;;;2.03;;
20480;SDS011;10399;50.754;3.366;2023-08-06T13:07:49;5.28;;;1.98;;
20480;SDS011;10399;50.754;3.366;2023-08-06T13:10:19;5.32;;;1.83;;
20480;SDS011;10399;50.754;3.366;2023-08-06T13:12:49;5.80;;;1.70;;
20480;SDS011;10399;50.754;3.366;2023-08-06T13:15:17;4.70;;;1.67;;
20480;SDS011;10399;50.754;3.366;2023-08-06T13:17:48;3.67;;;1.75;;
20480;SDS011;10399;50.754;3.366;2023-08-06T13:20:15;4.18;;;1.70;;
20480;SDS011;10399;50.754;3.366;2023-08-06T13:22:45;3.92;;;1.63;;
20480;SDS011;10399;50.754;3.366;2023-08-06T13:25:13;4.68;;;1.55;;
20480;SDS011;10399;50.754;3.366;2023-08-06T13:27:43;4.63;;;1.65;;
20480;SDS011;10399;50.754;3.366;2023-08-06T13:30:12;5.57;;;1.80;;
20480;SDS011;10399;50.754;3.366;2023-08-06T13:32:41;5.35;;;1.55;;
20480;SDS011;10399;50.754;3.366;2023-08-06T13:35:08;6.00;;;1.70;;
20480;SDS011;10399;50.754;3.366;2023-08-06T13:37:36;3.45;;;1.58;;
20480;SDS011;10399;50.754;3.366;2023-08-06T13:40:03;5.47;;;1.42;;
20480;SDS011;10399;50.754;3.366;2023-08-06T13:42:31;6.05;;;1.58;;
20480;SDS011;10399;50.754;3.366;2023-08-06T13:44:58;6.88;;;1.60;;
20480;SDS011;10399;50.754;3.366;2023-08-06T13:47:30;6.30;;;1.38;;
20480;SDS011;10399;50.754;3.366;2023-08-06T13:49:57;7.82;;;1.63;;
20480;SDS011;10399;50.754;3.366;2023-08-06T13:52:26;4.82;;;1.63;;
20480;SDS011;10399;50.754;3.366;2023-08-06T13:54:53;6.22;;;1.70;;
20480;SDS011;10399;50.754;3.366;2023-08-06T13:57:20;3.53;;;1.65;;
20480;SDS011;10399;50.754;3.366;2023-08-06T13:59:48;8.20;;;1.70;;
20480;SDS011;10399;50.754;3.366;2023-08-06T14:02:15;7.93;;;1.77;;
20480;SDS011;10399;50.754;3.366;2023-08-06T14:04:43;9.25;;;1.80;;
20480;SDS011;10399;50.754;3.366;2023-08-06T14:07:10;7.10;;;1.90;;
20480;SDS011;10399;50.754;3.366;2023-08-06T14:09:37;5.85;;;1.60;;
20480;SDS011;10399;50.754;3.366;2023-08-06T14:12:07;3.58;;;1.38;;
20480;SDS011;10399;50.754;3.366;2023-08-06T14:14:36;5.45;;;1.80;;
20480;SDS011;10399;50.754;3.366;2023-08-06T14:17:04;6.88;;;1.98;;
20480;SDS011;10399;50.754;3.366;2023-08-06T14:19:32;4.18;;;1.50;;
20480;SDS011;10399;50.754;3.366;2023-08-06T14:22:00;5.82;;;1.77;;
20480;SDS011;10399;50.754;3.366;2023-08-06T14:24:28;5.40;;;1.52;;
20480;SDS011;10399;50.754;3.366;2023-08-06T14:26:56;4.82;;;1.38;;
20480;SDS011;10399;50.754;3.366;2023-08-06T14:29:24;5.43;;;1.67;;
20480;SDS011;10399;50.754;3.366;2023-08-06T14:31:53;4.68;;;1.50;;
20480;SDS011;10399;50.754;3.366;2023-08-06T14:34:21;5.72;;;1.35;;
20480;SDS011;10399;50.754;3.366;2023-08-06T14:36:49;5.60;;;1.55;;
20480;SDS011;10399;50.754;3.366;2023-08-06T14:39:16;9.40;;;2.13;;
20480;SDS011;10399;50.754;3.366;2023-08-06T14:41:44;4.00;;;1.38;;
20480;SDS011;10399;50.754;3.366;2023-08-06T14:44:11;5.22;;;1.33;;
20480;SDS011;10399;50.754;3.366;2023-08-06T14:46:38;3.83;;;1.42;;
20480;SDS011;10399;50.754;3.366;2023-08-06T14:49:05;7.32;;;2.42;;
20480;SDS011;10399;50.754;3.366;2023-08-06T14:51:33;3.88;;;1.55;;
20480;SDS011;10399;50.754;3.366;2023-08-06T14:54:01;6.38;;;1.42;;
20480;SDS011;10399;50.754;3.366;2023-08-06T14:56:29;7.18;;;1.70;;
20480;SDS011;10399;50.754;3.366;2023-08-06T14:58:57;3.22;;;1.02;;